createdAt,value
2022-09-28T00:01:09.608Z,12.10
2022-09-28T00:03:36.378Z,12.00
2022-09-28T00:06:10.030Z,12.00
2022-09-28T00:08:37.142Z,12.00
2022-09-28T00:11:06.264Z,12.00
2022-09-28T00:13:33.237Z,12.00
2022-09-28T00:16:00.810Z,11.90
2022-09-28T00:18:28.391Z,11.90
2022-09-28T00:21:03.484Z,11.90
2022-09-28T00:23:30.281Z,11.90
2022-09-28T00:26:01.151Z,11.80
2022-09-28T00:28:27.830Z,11.80
2022-09-28T00:31:01.053Z,11.80
2022-09-28T00:33:28.284Z,11.80
2022-09-28T00:35:59.025Z,12.30
2022-09-28T00:38:29.487Z,11.80
2022-09-28T00:40:56.385Z,11.70
2022-09-28T00:43:24.547Z,11.70
2022-09-28T00:46:17.223Z,11.60
2022-09-28T00:48:53.326Z,11.70
2022-09-28T00:51:20.519Z,11.70
2022-09-28T00:53:49.083Z,11.60
2022-09-28T00:56:19.510Z,11.60
2022-09-28T00:58:50.483Z,12.50
2022-09-28T01:01:17.728Z,11.60
2022-09-28T01:03:46.495Z,11.50
2022-09-28T01:06:27.500Z,11.50
2022-09-28T01:08:58.424Z,11.50
2022-09-28T01:11:26.825Z,11.50
2022-09-28T01:13:57.400Z,11.90
2022-09-28T01:16:27.236Z,11.50
2022-09-28T01:19:31.742Z,11.70
2022-09-28T01:22:20.428Z,11.50
2022-09-28T01:24:49.067Z,11.50
2022-09-28T01:27:54.070Z,11.40
2022-09-28T01:30:21.587Z,11.50
2022-09-28T01:33:05.512Z,11.60
2022-09-28T01:35:36.916Z,11.60
2022-09-28T01:38:13.833Z,11.50
2022-09-28T01:40:41.805Z,11.50
2022-09-28T01:43:19.737Z,11.50
2022-09-28T01:45:54.263Z,11.60
2022-09-28T01:48:35.477Z,11.60
2022-09-28T01:51:06.282Z,11.50
2022-09-28T01:53:38.282Z,11.60
2022-09-28T01:56:23.440Z,11.50
2022-09-28T01:59:03.288Z,11.50
2022-09-28T02:01:40.530Z,11.60
2022-09-28T02:04:17.249Z,11.50
2022-09-28T02:07:07.407Z,11.50
2022-09-28T02:09:47.101Z,11.50
2022-09-28T02:12:20.676Z,11.40
2022-09-28T02:14:49.817Z,11.40
2022-09-28T02:17:17.148Z,11.40
2022-09-28T02:19:47.416Z,11.40
2022-09-28T02:22:16.843Z,11.40
2022-09-28T02:24:59.040Z,11.40
2022-09-28T02:27:45.469Z,11.50
2022-09-28T02:30:13.044Z,11.30
2022-09-28T02:32:44.006Z,11.40
2022-09-28T02:35:17.059Z,11.30
2022-09-28T02:37:45.590Z,11.30
2022-09-28T02:40:17.890Z,11.40
2022-09-28T02:43:00.329Z,11.40
2022-09-28T02:45:56.360Z,11.30
2022-09-28T02:48:43.281Z,11.40
2022-09-28T02:51:34.159Z,11.30
2022-09-28T02:54:22.001Z,11.30
2022-09-28T02:57:00.755Z,11.30
2022-09-28T02:59:42.497Z,11.30
2022-09-28T03:02:21.464Z,11.30
2022-09-28T03:05:06.353Z,11.30
2022-09-28T03:07:48.965Z,11.30
2022-09-28T03:10:23.842Z,11.30
2022-09-28T03:12:52.966Z,11.30
2022-09-28T03:15:23.608Z,11.30
2022-09-28T03:17:51.210Z,12.00
2022-09-28T03:20:18.202Z,11.30
2022-09-28T03:23:00.284Z,11.30
2022-09-28T03:25:32.178Z,11.20
2022-09-28T03:27:58.986Z,11.30
2022-09-28T03:30:26.476Z,11.30
2022-09-28T03:33:00.728Z,12.00
2022-09-28T03:35:30.176Z,11.20
2022-09-28T03:37:57.353Z,11.20
2022-09-28T03:40:25.980Z,11.20
2022-09-28T03:42:53.914Z,11.20
2022-09-28T03:45:20.683Z,11.20
2022-09-28T03:47:49.301Z,11.20
2022-09-28T03:50:18.289Z,11.20
2022-09-28T03:52:45.001Z,11.10
2022-09-28T03:55:11.864Z,11.20
2022-09-28T03:57:38.703Z,11.10
2022-09-28T04:00:06.156Z,11.10
2022-09-28T04:02:40.438Z,11.20
2022-09-28T04:05:07.636Z,11.10
2022-09-28T04:07:34.329Z,11.20
2022-09-28T04:10:01.110Z,11.10
2022-09-28T04:12:27.797Z,11.10
2022-09-28T04:14:54.550Z,11.00
2022-09-28T04:17:21.287Z,10.90
2022-09-28T04:19:48.530Z,11.00
2022-09-28T04:22:38.552Z,10.90
2022-09-28T04:25:06.145Z,10.90
2022-09-28T04:27:51.573Z,10.90
2022-09-28T04:30:18.962Z,10.80
2022-09-28T04:32:48.995Z,10.80
2022-09-28T04:35:17.227Z,10.80
2022-09-28T04:37:44.139Z,10.80
2022-09-28T04:40:11.480Z,10.80
2022-09-28T04:42:38.206Z,11.60
2022-09-28T04:45:05.473Z,10.70
2022-09-28T04:47:37.407Z,10.70
2022-09-28T04:50:15.730Z,10.70
2022-09-28T04:53:05.708Z,10.70
2022-09-28T04:55:32.609Z,10.60
2022-09-28T04:58:03.268Z,10.50
2022-09-28T05:00:35.814Z,10.50
2022-09-28T05:03:28.421Z,10.60
2022-09-28T05:06:15.761Z,10.50
2022-09-28T05:08:47.338Z,10.50
2022-09-28T05:11:15.395Z,10.50
2022-09-28T05:13:45.180Z,10.50
2022-09-28T05:16:16.057Z,10.50
2022-09-28T05:19:01.609Z,10.40
2022-09-28T05:21:29.921Z,10.50
2022-09-28T05:23:58.180Z,10.60
2022-09-28T05:26:25.314Z,10.60
2022-09-28T05:28:52.074Z,10.60
2022-09-28T05:31:37.608Z,10.50
2022-09-28T05:34:12.578Z,10.50
2022-09-28T05:36:40.477Z,10.40
2022-09-28T05:39:07.466Z,10.40
2022-09-28T05:41:34.557Z,10.30
2022-09-28T05:44:01.661Z,10.40
2022-09-28T05:46:29.684Z,10.40
2022-09-28T05:49:00.270Z,10.40
2022-09-28T05:51:27.482Z,10.40
2022-09-28T05:53:55.527Z,10.40
2022-09-28T05:56:22.954Z,10.40
2022-09-28T05:58:50.768Z,10.40
2022-09-28T06:01:19.756Z,10.40
2022-09-28T06:03:47.006Z,10.30
2022-09-28T06:06:13.774Z,10.30
2022-09-28T06:08:44.015Z,10.40
2022-09-28T06:11:36.677Z,10.20
2022-09-28T06:14:14.081Z,10.40
2022-09-28T06:16:44.015Z,10.50
2022-09-28T06:19:12.410Z,10.50
2022-09-28T06:21:59.573Z,10.60
2022-09-28T06:24:26.613Z,10.70
2022-09-28T06:26:53.349Z,10.70
2022-09-28T06:29:21.153Z,10.90
2022-09-28T06:31:47.949Z,10.90
2022-09-28T06:34:15.011Z,11.00
2022-09-28T06:36:41.844Z,11.10
2022-09-28T06:39:09.209Z,11.20
2022-09-28T06:41:36.708Z,11.30
2022-09-28T06:44:13.218Z,11.40
2022-09-28T06:46:58.572Z,11.50
2022-09-28T06:49:41.047Z,11.60
2022-09-28T06:52:26.477Z,11.80
2022-09-28T06:55:12.345Z,11.60
2022-09-28T06:57:43.829Z,11.70
2022-09-28T07:00:11.304Z,11.70
2022-09-28T07:02:38.060Z,11.90
2022-09-28T07:05:13.732Z,11.80
2022-09-28T07:07:58.971Z,12.00
2022-09-28T07:10:58.084Z,12.00
2022-09-28T07:13:50.309Z,12.10
2022-09-28T07:16:24.086Z,12.20
2022-09-28T07:18:53.389Z,12.20
2022-09-28T07:21:28.722Z,12.30
2022-09-28T07:23:59.866Z,12.50
2022-09-28T07:26:45.413Z,12.40
2022-09-28T07:29:32.040Z,12.50
2022-09-28T07:32:22.505Z,12.60
2022-09-28T07:35:16.143Z,12.70
2022-09-28T07:37:49.086Z,12.90
2022-09-28T07:40:34.365Z,12.90
2022-09-28T07:43:05.839Z,13.00
2022-09-28T07:45:35.829Z,13.10
2022-09-28T07:48:03.756Z,13.00
2022-09-28T07:50:52.644Z,13.10
2022-09-28T07:53:54.465Z,13.10
2022-09-28T07:56:39.538Z,13.20
2022-09-28T07:59:18.226Z,13.20
2022-09-28T08:02:05.304Z,13.20
2022-09-28T08:04:32.173Z,13.40
2022-09-28T08:07:00.291Z,13.40
2022-09-28T08:09:26.968Z,13.50
2022-09-28T08:12:21.010Z,13.60
2022-09-28T08:15:16.800Z,13.70
2022-09-28T08:17:48.888Z,13.80
2022-09-28T08:20:36.254Z,13.80
2022-09-28T08:23:07.448Z,13.90
2022-09-28T08:25:38.748Z,14.00
2022-09-28T08:28:07.267Z,14.00
2022-09-28T08:30:38.395Z,14.10
2022-09-28T08:33:21.139Z,14.20
2022-09-28T08:36:06.612Z,14.20
2022-09-28T08:38:51.754Z,14.40
2022-09-28T08:42:08.768Z,14.30
2022-09-28T08:44:57.692Z,14.60
2022-09-28T08:48:14.106Z,14.40
2022-09-28T08:51:00.584Z,14.60
2022-09-28T08:53:49.768Z,14.70
2022-09-28T08:56:30.353Z,14.70
2022-09-28T08:59:02.762Z,14.70
2022-09-28T09:01:36.973Z,14.80
2022-09-28T09:04:07.850Z,14.90
2022-09-28T09:07:01.705Z,15.00
2022-09-28T09:09:46.676Z,15.10
2022-09-28T09:12:33.201Z,15.20
2022-09-28T09:15:41.049Z,15.30
2022-09-28T09:18:35.925Z,15.30
2022-09-28T09:21:33.904Z,15.40
2022-09-28T09:24:26.020Z,15.30
2022-09-28T09:27:14.235Z,15.50
2022-09-28T09:29:55.966Z,15.50
2022-09-28T09:32:28.977Z,15.70
2022-09-28T09:34:58.757Z,15.80
2022-09-28T09:38:27.752Z,16.10
2022-09-28T09:41:25.423Z,15.70
2022-09-28T09:44:06.965Z,15.60
2022-09-28T09:46:55.829Z,15.70
2022-09-28T09:49:40.183Z,15.60
2022-09-28T09:52:26.502Z,15.70
2022-09-28T09:55:04.372Z,15.80
2022-09-28T09:57:51.781Z,16.10
2022-09-28T10:00:33.932Z,16.20
2022-09-28T10:03:32.513Z,16.00
2022-09-28T10:06:13.809Z,16.00
2022-09-28T10:08:48.951Z,16.00
2022-09-28T10:11:27.837Z,16.00
2022-09-28T10:13:55.869Z,16.10
2022-09-28T10:16:37.925Z,16.30
2022-09-28T10:19:13.226Z,16.90
2022-09-28T10:21:59.909Z,16.60
2022-09-28T10:24:51.391Z,16.80
2022-09-28T10:27:23.510Z,17.40
2022-09-28T10:29:52.272Z,17.30
2022-09-28T10:32:25.264Z,17.50
2022-09-28T10:35:14.756Z,17.60
2022-09-28T10:38:06.788Z,17.60
2022-09-28T10:40:51.080Z,17.60
2022-09-28T10:43:31.396Z,17.50
2022-09-28T10:46:11.245Z,17.40
2022-09-28T10:48:57.742Z,17.40
2022-09-28T10:51:46.531Z,17.50
2022-09-28T10:54:19.014Z,17.80
2022-09-28T10:56:49.010Z,17.60
2022-09-28T10:59:36.406Z,17.80
2022-09-28T11:02:40.718Z,18.30
2022-09-28T11:05:30.012Z,17.50
2022-09-28T11:08:00.615Z,17.60
2022-09-28T11:10:34.532Z,17.80
2022-09-28T11:13:12.168Z,17.90
2022-09-28T11:15:46.382Z,17.50
2022-09-28T11:18:32.307Z,17.40
2022-09-28T11:21:14.933Z,17.60
2022-09-28T11:24:01.206Z,17.80
2022-09-28T11:26:37.609Z,18.10
2022-09-28T11:29:07.344Z,18.10
2022-09-28T11:31:50.207Z,18.40
2022-09-28T11:34:57.878Z,18.70
2022-09-28T11:37:42.002Z,18.90
2022-09-28T11:40:29.010Z,19.10
2022-09-28T11:43:11.469Z,19.30
2022-09-28T11:46:09.054Z,19.30
2022-09-28T11:48:47.438Z,19.40
2022-09-28T11:51:26.029Z,19.40
2022-09-28T11:54:31.308Z,19.50
2022-09-28T11:57:02.457Z,19.50
2022-09-28T11:59:38.642Z,20.30
2022-09-28T12:02:05.442Z,19.20
2022-09-28T12:05:02.877Z,19.00
2022-09-28T12:07:56.428Z,18.80
2022-09-28T12:11:00.398Z,18.60
2022-09-28T12:13:49.494Z,18.20
2022-09-28T12:19:19.537Z,18.00
2022-09-28T12:21:52.632Z,18.10
2022-09-28T12:24:28.898Z,18.90
2022-09-28T12:27:00.564Z,18.20
2022-09-28T12:29:41.056Z,18.50
2022-09-28T12:32:16.656Z,18.80
2022-09-28T12:34:43.964Z,18.40
2022-09-28T12:37:25.652Z,18.60
2022-09-28T12:40:21.410Z,17.80
2022-09-28T12:43:23.287Z,17.50
2022-09-28T12:46:12.094Z,17.20
2022-09-28T12:49:47.353Z,16.70
2022-09-28T12:52:18.883Z,16.40
2022-09-28T12:54:53.144Z,16.10
2022-09-28T12:57:41.083Z,15.70
2022-09-28T13:00:15.973Z,15.60
2022-09-28T13:03:07.798Z,15.50
2022-09-28T13:05:44.228Z,15.30
2022-09-28T13:08:34.137Z,15.40
2022-09-28T13:11:31.861Z,15.30
2022-09-28T13:14:01.848Z,15.40
2022-09-28T13:16:36.543Z,15.40
2022-09-28T13:19:16.811Z,15.30
2022-09-28T13:22:05.474Z,15.50
2022-09-28T13:24:38.026Z,15.50
2022-09-28T13:27:22.999Z,15.60
2022-09-28T13:29:51.079Z,15.70
2022-09-28T13:32:18.778Z,15.80
2022-09-28T13:34:50.369Z,15.90
2022-09-28T13:37:17.041Z,16.00
2022-09-28T13:39:52.471Z,16.20
2022-09-28T13:42:47.446Z,16.50
2022-09-28T13:45:19.847Z,17.10
2022-09-28T13:48:12.556Z,17.60
2022-09-28T13:51:02.057Z,18.00
2022-09-28T13:54:01.546Z,18.40
2022-09-28T13:56:48.484Z,18.70
2022-09-28T13:59:28.790Z,19.10
2022-09-28T14:02:00.732Z,19.20
2022-09-28T14:05:06.785Z,20.00
2022-09-28T14:07:36.609Z,19.60
2022-09-28T14:10:40.485Z,19.80
2022-09-28T14:13:08.913Z,19.50
2022-09-28T14:15:40.065Z,19.50
2022-09-28T14:18:15.836Z,19.40
2022-09-28T14:21:07.760Z,19.10
2022-09-28T14:24:03.096Z,19.00
2022-09-28T14:26:54.527Z,18.60
2022-09-28T14:29:28.605Z,18.40
2022-09-28T14:31:58.209Z,18.00
2022-09-28T14:34:41.163Z,17.70
2022-09-28T14:38:11.737Z,17.50
2022-09-28T14:41:10.977Z,17.40
2022-09-28T14:44:02.847Z,17.30
2022-09-28T14:46:32.711Z,17.10
2022-09-28T14:49:03.174Z,16.90
2022-09-28T14:51:30.135Z,16.60
2022-09-28T14:54:07.721Z,16.60
2022-09-28T14:56:52.700Z,16.50
2022-09-28T14:59:27.029Z,17.20
2022-09-28T15:02:18.950Z,16.20
2022-09-28T15:04:50.398Z,16.00
2022-09-28T15:07:29.652Z,16.00
2022-09-28T15:09:57.839Z,15.80
2022-09-28T15:12:27.642Z,15.70
2022-09-28T15:15:02.959Z,15.60
2022-09-28T15:17:39.530Z,15.60
2022-09-28T15:20:10.880Z,15.60
2022-09-28T15:22:44.801Z,15.60
2022-09-28T15:25:21.510Z,15.50
2022-09-28T15:27:54.122Z,15.50
2022-09-28T15:30:31.774Z,15.60
2022-09-28T15:33:20.377Z,15.70
2022-09-28T15:36:01.681Z,15.60
2022-09-28T15:38:29.989Z,15.60
2022-09-28T15:40:57.380Z,15.70
2022-09-28T15:43:32.855Z,15.60
2022-09-28T15:46:20.945Z,15.70
2022-09-28T15:48:55.301Z,15.70
2022-09-28T15:51:24.365Z,16.50
2022-09-28T15:54:02.792Z,15.70
2022-09-28T15:56:30.421Z,16.10
2022-09-28T15:59:08.673Z,15.50
2022-09-28T16:01:37.756Z,15.60
2022-09-28T16:04:48.093Z,15.50
2022-09-28T16:07:33.180Z,15.60
2022-09-28T16:10:05.401Z,15.70
2022-09-28T16:12:38.174Z,15.80
2022-09-28T16:15:20.905Z,15.90
2022-09-28T16:17:54.819Z,16.00
2022-09-28T16:20:31.903Z,15.90
2022-09-28T16:23:05.940Z,17.00
2022-09-28T16:25:39.024Z,16.30
2022-09-28T16:28:06.748Z,16.30
2022-09-28T16:30:34.499Z,16.50
2022-09-28T16:33:05.604Z,16.60
2022-09-28T16:35:35.404Z,16.40
2022-09-28T16:38:14.772Z,16.50
2022-09-28T16:40:44.131Z,16.60
2022-09-28T16:43:26.545Z,16.50
2022-09-28T16:45:58.294Z,16.40
2022-09-28T16:48:30.792Z,16.40
2022-09-28T16:50:58.403Z,16.30
2022-09-28T16:53:44.404Z,16.20
2022-09-28T16:56:12.405Z,16.00
2022-09-28T16:58:39.191Z,16.00
2022-09-28T17:01:09.682Z,16.40
2022-09-28T17:03:36.582Z,15.70
2022-09-28T17:06:06.136Z,15.60
2022-09-28T17:08:33.669Z,15.60
2022-09-28T17:11:24.274Z,15.50
2022-09-28T17:13:51.777Z,15.50
2022-09-28T17:19:21.384Z,15.30
2022-09-28T17:21:48.695Z,15.20
2022-09-28T17:24:15.465Z,15.20
2022-09-28T17:26:44.268Z,15.90
2022-09-28T17:29:14.591Z,15.00
2022-09-28T17:31:45.689Z,14.80
2022-09-28T17:34:15.167Z,14.80
2022-09-28T17:36:43.176Z,14.70
2022-09-28T17:39:14.715Z,14.70
2022-09-28T17:41:41.682Z,14.60
2022-09-28T17:44:08.649Z,14.60
2022-09-28T17:46:45.708Z,14.50
2022-09-28T17:49:12.617Z,15.00
2022-09-28T17:51:39.421Z,14.20
2022-09-28T17:54:07.925Z,14.30
2022-09-28T17:56:35.349Z,14.30
2022-09-28T17:59:10.046Z,14.20
2022-09-28T18:01:39.662Z,14.10
2022-09-28T18:04:08.667Z,14.20
2022-09-28T18:06:37.083Z,14.00
2022-09-28T18:09:05.306Z,14.00
2022-09-28T18:11:33.551Z,14.00
2022-09-28T18:14:00.602Z,14.70
2022-09-28T18:16:28.590Z,13.90
2022-09-28T18:18:55.571Z,13.40
2022-09-28T18:21:22.284Z,13.80
2022-09-28T18:23:49.029Z,13.80
2022-09-28T18:26:18.934Z,14.60
2022-09-28T18:28:46.069Z,13.70
2022-09-28T18:31:14.591Z,13.60
2022-09-28T18:33:41.601Z,13.70
2022-09-28T18:36:08.739Z,13.70
2022-09-28T18:38:36.653Z,13.50
2022-09-28T18:41:15.446Z,13.60
2022-09-28T18:43:43.181Z,13.60
2022-09-28T18:46:11.255Z,14.10
2022-09-28T18:48:40.429Z,13.50
2022-09-28T18:51:11.629Z,13.90
2022-09-28T18:53:39.440Z,13.90
2022-09-28T18:56:08.330Z,13.50
2022-09-28T18:58:36.577Z,13.60
2022-09-28T19:01:34.176Z,13.50
2022-09-28T19:04:00.305Z,13.50
2022-09-28T19:06:27.495Z,13.40
2022-09-28T19:08:58.096Z,13.40
2022-09-28T19:11:25.653Z,13.40
2022-09-28T19:13:54.305Z,13.40
2022-09-28T19:16:24.271Z,14.20
2022-09-28T19:18:52.357Z,13.50
2022-09-28T19:21:20.089Z,13.50
2022-09-28T19:23:49.778Z,14.20
2022-09-28T19:26:23.254Z,13.40
2022-09-28T19:28:51.512Z,13.50
2022-09-28T19:31:18.670Z,13.50
2022-09-28T19:33:46.122Z,13.50
2022-09-28T19:36:15.272Z,13.40
2022-09-28T19:38:42.183Z,13.30
2022-09-28T19:41:35.825Z,13.30
2022-09-28T19:44:08.380Z,13.30
2022-09-28T19:46:37.475Z,13.30
2022-09-28T19:49:12.403Z,13.30
2022-09-28T19:51:51.582Z,13.30
2022-09-28T19:54:33.117Z,13.30
2022-09-28T19:57:08.108Z,13.20
2022-09-28T19:59:36.803Z,13.10
2022-09-28T20:02:05.568Z,13.20
2022-09-28T20:04:32.236Z,13.10
2022-09-28T20:06:59.133Z,13.10
2022-09-28T20:09:25.837Z,13.00
2022-09-28T20:11:53.055Z,13.00
2022-09-28T20:14:20.603Z,13.10
2022-09-28T20:16:48.195Z,13.00
2022-09-28T20:19:15.463Z,13.10
2022-09-28T20:21:42.198Z,13.20
2022-09-28T20:24:11.184Z,13.50
2022-09-28T20:26:37.902Z,13.90
2022-09-28T20:29:06.590Z,13.10
2022-09-28T20:31:38.137Z,13.00
2022-09-28T20:34:05.743Z,13.00
2022-09-28T20:36:33.022Z,13.10
2022-09-28T20:39:03.756Z,13.00
2022-09-28T20:41:35.500Z,13.00
2022-09-28T20:44:05.691Z,13.00
2022-09-28T20:46:33.762Z,13.00
2022-09-28T20:49:00.719Z,12.90
2022-09-28T20:51:27.463Z,12.90
2022-09-28T20:53:58.847Z,12.80
2022-09-28T20:56:37.674Z,12.80
2022-09-28T20:59:06.965Z,12.80
2022-09-28T21:01:33.710Z,12.80
2022-09-28T21:04:02.622Z,12.70
2022-09-28T21:06:35.915Z,12.80
2022-09-28T21:09:04.273Z,12.70
2022-09-28T21:11:32.037Z,12.60
2022-09-28T21:14:01.552Z,12.60
2022-09-28T21:16:30.611Z,12.60
2022-09-28T21:18:57.653Z,12.60
2022-09-28T21:21:25.016Z,12.60
2022-09-28T21:23:56.064Z,12.60
2022-09-28T21:26:25.393Z,12.70
2022-09-28T21:29:00.681Z,12.60
2022-09-28T21:31:30.300Z,12.60
2022-09-28T21:33:58.175Z,12.40
2022-09-28T21:36:25.592Z,12.40
2022-09-28T21:38:53.420Z,12.50
2022-09-28T21:41:20.131Z,12.60
2022-09-28T21:43:46.908Z,12.40
2022-09-28T21:46:13.817Z,12.40
2022-09-28T21:48:40.893Z,12.40
2022-09-28T21:51:10.035Z,12.50
2022-09-28T21:53:37.908Z,12.30
2022-09-28T21:56:07.238Z,12.50
2022-09-28T21:58:35.688Z,12.30
2022-09-28T22:01:14.593Z,12.40
2022-09-28T22:03:43.112Z,12.40
2022-09-28T22:06:10.539Z,12.40
2022-09-28T22:08:38.016Z,12.30
2022-09-28T22:11:07.376Z,12.60
2022-09-28T22:13:41.003Z,12.30
2022-09-28T22:16:08.827Z,12.30
2022-09-28T22:18:35.723Z,12.30
2022-09-28T22:21:16.938Z,12.20
2022-09-28T22:23:44.388Z,12.20
2022-09-28T22:26:17.927Z,12.10
2022-09-28T22:28:47.855Z,12.20
2022-09-28T22:31:16.368Z,12.10
2022-09-28T22:33:43.252Z,12.00
2022-09-28T22:36:10.572Z,12.80
2022-09-28T22:38:37.608Z,12.00
2022-09-28T22:41:04.329Z,12.00
2022-09-28T22:43:31.232Z,12.00
2022-09-28T22:46:06.279Z,12.00
2022-09-28T22:48:33.125Z,12.10
2022-09-28T22:51:00.064Z,11.90
2022-09-28T22:53:28.305Z,11.90
2022-09-28T22:55:56.292Z,11.70
2022-09-28T22:58:23.603Z,11.70
2022-09-28T23:00:50.744Z,12.80
2022-09-28T23:03:17.847Z,11.80
2022-09-28T23:05:54.977Z,11.80
2022-09-28T23:08:22.957Z,11.70
2022-09-28T23:10:50.502Z,11.70
2022-09-28T23:13:17.716Z,11.70
2022-09-28T23:15:53.809Z,11.70
2022-09-28T23:18:20.610Z,11.50
2022-09-28T23:20:58.501Z,11.60
2022-09-28T23:23:25.359Z,11.60
2022-09-28T23:25:52.621Z,11.60
2022-09-28T23:28:21.298Z,11.60
2022-09-28T23:30:48.510Z,11.50
2022-09-28T23:33:16.621Z,11.60
2022-09-28T23:35:43.999Z,11.50
2022-09-28T23:38:13.416Z,11.40
2022-09-28T23:40:41.184Z,11.50
2022-09-28T23:43:08.626Z,11.40
2022-09-28T23:45:35.361Z,11.30
2022-09-28T23:48:02.445Z,11.40
2022-09-28T23:50:29.096Z,11.30
2022-09-28T23:52:55.769Z,11.30
2022-09-28T23:55:22.753Z,11.30
2022-09-28T23:57:49.464Z,12.00
